Time;durP1;ratioP1;P1;durP2;ratioP2;P2;SDS_P1;SDS_P2;PMS_P1;PMS_P2;Temp;Humidity;BMP_temperature;BMP_pressure;BME280_temperature;BME280_humidity;BME280_pressure;Samples;Min_cycle;Max_cycle;Signal;HPM_P1;HPM_P2
2024/01/01 00:01:46;;;;;;;98.40;57.38;;;8.30;99.90;;;;;;5049245;28;20036;-66
2024/01/01 00:04:12;;;;;;;95.53;54.55;;;8.40;99.90;;;;;;5035823;28;20393;-66
2024/01/01 00:06:37;;;;;;;98.40;55.97;;;8.40;99.90;;;;;;5043940;28;20037;-65
2024/01/01 00:09:03;;;;;;;97.43;57.83;;;8.50;99.90;;;;;;5049278;28;20041;-66
2024/01/01 00:11:29;;;;;;;76.95;44.55;;;8.50;99.90;;;;;;5054025;28;20419;-66
2024/01/01 00:13:55;;;;;;;70.22;39.70;;;8.50;99.90;;;;;;5051938;28;20471;-66
2024/01/01 00:16:20;;;;;;;59.80;38.20;;;8.50;99.90;;;;;;5040954;28;20507;-65
2024/01/01 00:18:47;;;;;;;69.85;39.33;;;8.60;99.90;;;;;;5054365;28;20060;-66
2024/01/01 00:21:12;;;;;;;66.00;37.03;;;8.60;99.90;;;;;;5073744;28;20045;-65
2024/01/01 00:23:38;;;;;;;62.20;36.75;;;8.50;99.90;;;;;;5044009;28;20036;-66
2024/01/01 00:26:06;;;;;;;53.00;31.98;;;8.50;99.90;;;;;;5053300;28;20376;-65
2024/01/01 00:28:32;;;;;;;62.03;34.33;;;8.60;99.90;;;;;;5053941;28;20037;-66
2024/01/01 00:30:57;;;;;;;54.85;30.08;;;8.50;99.90;;;;;;5047262;28;20049;-66
2024/01/01 00:33:23;;;;;;;52.70;29.65;;;8.60;99.90;;;;;;5041879;28;20049;-65
2024/01/01 00:35:49;;;;;;;48.33;28.83;;;8.60;99.90;;;;;;5047658;28;20033;-65
2024/01/01 00:38:14;;;;;;;39.50;23.00;;;8.60;99.90;;;;;;5049210;28;20168;-66
2024/01/01 00:40:40;;;;;;;38.65;23.35;;;8.60;99.90;;;;;;5052304;28;20088;-65
2024/01/01 00:43:06;;;;;;;39.35;22.15;;;8.60;99.90;;;;;;5052885;28;20080;-66
2024/01/01 00:45:31;;;;;;;37.35;18.67;;;8.60;99.90;;;;;;5053145;28;20041;-66
2024/01/01 00:47:57;;;;;;;37.05;21.08;;;8.60;99.90;;;;;;5039455;28;20041;-65
2024/01/01 00:50:22;;;;;;;41.75;21.83;;;8.60;99.90;;;;;;5049847;28;20120;-65
2024/01/01 00:52:48;;;;;;;41.92;24.13;;;8.60;99.90;;;;;;5052643;28;20500;-65
2024/01/01 00:55:13;;;;;;;39.72;22.52;;;8.60;99.90;;;;;;5043682;28;20044;-66
2024/01/01 00:57:39;;;;;;;42.53;24.50;;;8.60;99.90;;;;;;5045786;28;20029;-66
2024/01/01 01:00:05;;;;;;;47.00;22.38;;;8.50;99.90;;;;;;5052991;28;20037;-65
2024/01/01 01:02:31;;;;;;;41.65;23.55;;;8.50;99.90;;;;;;5052596;28;20071;-66
2024/01/01 01:04:56;;;;;;;40.55;22.73;;;8.50;99.90;;;;;;5046027;28;20580;-65
2024/01/01 01:07:22;;;;;;;44.75;24.05;;;8.50;99.90;;;;;;5050249;28;20048;-66
2024/01/01 01:09:47;;;;;;;43.97;26.17;;;8.50;99.90;;;;;;5047113;28;20123;-66
2024/01/01 01:12:16;;;;;;;49.67;26.98;;;8.50;99.90;;;;;;5048302;28;20072;-66
2024/01/01 01:14:42;;;;;;;51.88;26.48;;;8.50;99.90;;;;;;5051488;28;20048;-67
2024/01/01 01:17:08;;;;;;;50.65;26.00;;;8.50;99.90;;;;;;5052528;28;20036;-66
2024/01/01 01:19:34;;;;;;;53.17;28.65;;;8.50;99.90;;;;;;5052908;28;20033;-67
2024/01/01 01:21:59;;;;;;;44.65;26.67;;;8.50;99.90;;;;;;5042671;28;20037;-66
2024/01/01 01:24:25;;;;;;;41.30;23.38;;;8.50;99.90;;;;;;5035661;28;20038;-66
2024/01/01 01:26:51;;;;;;;39.08;21.73;;;8.60;99.90;;;;;;5051937;28;20044;-66
2024/01/01 01:29:17;;;;;;;45.55;24.60;;;8.50;99.90;;;;;;5047282;28;20040;-66
2024/01/01 01:31:44;;;;;;;42.88;22.25;;;8.50;99.90;;;;;;5051790;28;20029;-66
2024/01/01 01:34:09;;;;;;;44.47;23.80;;;8.50;99.90;;;;;;5051793;28;20033;-67
2024/01/01 01:36:35;;;;;;;38.75;22.70;;;8.50;99.90;;;;;;5046835;28;20127;-66
2024/01/01 01:39:00;;;;;;;35.42;19.42;;;8.50;99.90;;;;;;5050416;28;20036;-66
2024/01/01 01:41:27;;;;;;;39.55;20.05;;;8.50;99.90;;;;;;5052178;28;20041;-66
2024/01/01 01:43:53;;;;;;;38.60;21.75;;;8.50;99.90;;;;;;5022097;28;20040;-65
2024/01/01 01:46:19;;;;;;;33.20;23.75;;;8.50;99.90;;;;;;5041334;28;20055;-65
2024/01/01 01:48:44;;;;;;;37.28;21.55;;;8.50;99.90;;;;;;5051891;28;20071;-65
2024/01/01 01:51:11;;;;;;;30.63;19.52;;;8.60;99.90;;;;;;5051441;28;20478;-65
2024/01/01 01:53:37;;;;;;;31.25;20.35;;;8.60;99.90;;;;;;5046177;28;20033;-66
2024/01/01 01:56:04;;;;;;;37.08;20.15;;;8.60;99.90;;;;;;5047328;28;20055;-65
2024/01/01 01:58:34;;;;;;;32.92;19.08;;;8.60;99.90;;;;;;5051695;28;20107;-66
2024/01/01 02:01:00;;;;;;;34.80;21.65;;;8.60;99.90;;;;;;5061570;28;20407;-65
2024/01/01 02:03:25;;;;;;;28.58;19.20;;;8.60;99.90;;;;;;5027200;28;20041;-66
2024/01/01 02:05:51;;;;;;;31.50;19.45;;;8.60;99.90;;;;;;5051327;28;20029;-66
2024/01/01 02:08:18;;;;;;;27.75;15.65;;;8.70;99.90;;;;;;5051323;28;20565;-66
2024/01/01 02:10:44;;;;;;;24.45;15.73;;;8.60;99.90;;;;;;5051745;28;20052;-66
2024/01/01 02:13:23;;;;;;;20.92;12.80;;;8.70;99.90;;;;;;5036160;28;20037;-66
2024/01/01 02:15:49;;;;;;;20.48;11.32;;;8.70;99.90;;;;;;5044160;28;20043;-66
2024/01/01 02:18:15;;;;;;;17.08;11.05;;;8.70;99.90;;;;;;5047360;28;20037;-66
2024/01/01 02:20:40;;;;;;;22.52;13.50;;;8.60;99.90;;;;;;5041060;28;20020;-66
2024/01/01 02:23:06;;;;;;;19.95;11.45;;;8.60;99.90;;;;;;5050489;28;20557;-65
2024/01/01 02:25:32;;;;;;;22.63;12.60;;;8.60;99.90;;;;;;5051869;28;20037;-67
2024/01/01 02:27:57;;;;;;;19.08;9.95;;;8.60;99.90;;;;;;5042292;28;20488;-66
2024/01/01 02:30:23;;;;;;;17.92;10.40;;;8.60;99.90;;;;;;5050954;28;20036;-65
2024/01/01 02:32:48;;;;;;;20.73;9.10;;;8.60;99.90;;;;;;5054517;28;20032;-65
2024/01/01 02:35:14;;;;;;;14.48;7.75;;;8.60;99.90;;;;;;5057904;28;20053;-65
2024/01/01 02:37:39;;;;;;;11.13;6.82;;;8.50;99.90;;;;;;5050791;28;20107;-66
2024/01/01 02:40:08;;;;;;;11.30;5.70;;;8.40;99.90;;;;;;5050386;28;20479;-66
2024/01/01 02:42:34;;;;;;;10.73;5.93;;;8.40;99.90;;;;;;5048336;28;20049;-66
2024/01/01 02:44:59;;;;;;;12.70;5.15;;;8.40;99.90;;;;;;5044278;28;20044;-66
2024/01/01 02:47:25;;;;;;;11.63;5.00;;;8.50;99.90;;;;;;5050550;28;20396;-65
2024/01/01 02:49:51;;;;;;;9.68;5.05;;;8.40;99.90;;;;;;5051563;28;20036;-66
2024/01/01 02:52:16;;;;;;;10.63;4.20;;;8.40;99.90;;;;;;5042211;28;20434;-65
2024/01/01 02:54:42;;;;;;;8.60;3.83;;;8.40;99.90;;;;;;5050618;28;20044;-65
2024/01/01 02:57:07;;;;;;;13.13;4.20;;;8.30;99.90;;;;;;5051283;28;20489;-66
2024/01/01 02:59:36;;;;;;;9.25;3.83;;;8.30;99.90;;;;;;5047938;28;20506;-63
2024/01/01 03:02:01;;;;;;;7.10;3.65;;;8.30;99.90;;;;;;5038790;28;20032;-66
2024/01/01 03:04:30;;;;;;;6.03;3.15;;;8.30;99.90;;;;;;5050434;28;20442;-67
2024/01/01 03:06:56;;;;;;;9.00;3.53;;;8.30;99.90;;;;;;5051457;28;20056;-66
2024/01/01 03:09:21;;;;;;;7.53;3.17;;;8.30;99.90;;;;;;5046941;28;20041;-66
2024/01/01 03:11:47;;;;;;;10.02;3.33;;;8.30;99.90;;;;;;5049338;28;20087;-65
2024/01/01 03:14:12;;;;;;;7.13;2.90;;;8.20;99.90;;;;;;5050990;28;20075;-65
2024/01/01 03:16:38;;;;;;;5.78;3.42;;;8.30;99.90;;;;;;5049278;28;20072;-68
2024/01/01 03:19:03;;;;;;;8.10;3.10;;;8.30;99.90;;;;;;5046427;28;20038;-66
2024/01/01 03:21:29;;;;;;;6.50;2.90;;;8.30;99.90;;;;;;5050353;28;20041;-65
2024/01/01 03:23:54;;;;;;;10.43;2.83;;;8.20;99.90;;;;;;5050869;28;20503;-65
2024/01/01 03:26:22;;;;;;;6.95;2.78;;;8.10;99.90;;;;;;5033194;28;20094;-65
2024/01/01 03:28:48;;;;;;;7.25;2.83;;;8.00;99.90;;;;;;5046393;28;20095;-67
2024/01/01 03:31:13;;;;;;;7.30;3.15;;;8.00;99.90;;;;;;5050366;28;20048;-65
2024/01/01 03:33:39;;;;;;;10.20;3.25;;;8.00;99.90;;;;;;5045713;28;20076;-65
2024/01/01 03:36:04;;;;;;;9.05;3.30;;;8.00;99.90;;;;;;5054119;28;20392;-66
2024/01/01 03:38:30;;;;;;;11.30;3.08;;;8.00;99.90;;;;;;5019969;28;20475;-66
2024/01/01 03:40:56;;;;;;;6.25;2.80;;;7.90;99.90;;;;;;5051464;28;20025;-65
2024/01/01 03:43:22;;;;;;;7.85;3.42;;;7.90;99.90;;;;;;5044117;28;20045;-65
2024/01/01 03:45:47;;;;;;;6.00;2.90;;;8.00;99.90;;;;;;5046303;28;20399;-65
2024/01/01 03:48:13;;;;;;;7.60;2.95;;;7.90;99.90;;;;;;5054697;28;20041;-65
2024/01/01 03:50:38;;;;;;;9.60;3.03;;;7.90;99.90;;;;;;5054236;28;20434;-66
2024/01/01 03:53:04;;;;;;;6.95;3.13;;;7.90;99.90;;;;;;5048022;28;20488;-65
2024/01/01 03:55:30;;;;;;;6.90;3.00;;;7.90;99.90;;;;;;5054200;28;20033;-65
2024/01/01 03:57:56;;;;;;;6.35;2.78;;;7.90;99.90;;;;;;5054307;28;20060;-66
2024/01/01 04:00:22;;;;;;;6.38;2.83;;;7.90;99.90;;;;;;5030718;28;20036;-66
2024/01/01 04:02:48;;;;;;;6.25;2.88;;;7.90;99.90;;;;;;5053152;28;20051;-67
2024/01/01 04:05:14;;;;;;;9.07;2.83;;;7.90;99.90;;;;;;5054461;28;20115;-66
2024/01/01 04:07:40;;;;;;;11.30;3.35;;;7.90;99.90;;;;;;5054362;28;20507;-66
2024/01/01 04:10:08;;;;;;;8.25;3.10;;;7.90;99.90;;;;;;5041898;28;20146;-65
2024/01/01 04:12:34;;;;;;;6.65;2.33;;;7.80;99.90;;;;;;5052826;28;20538;-65
2024/01/01 04:14:59;;;;;;;8.90;2.97;;;7.80;99.90;;;;;;5049950;28;20033;-65
2024/01/01 04:17:25;;;;;;;6.65;2.80;;;7.90;99.90;;;;;;5047478;28;20060;-66
2024/01/01 04:19:50;;;;;;;8.07;3.13;;;7.80;99.90;;;;;;5053717;28;20515;-65
2024/01/01 04:22:18;;;;;;;6.43;2.65;;;7.90;99.90;;;;;;5053859;28;20495;-65
2024/01/01 04:24:43;;;;;;;9.43;3.53;;;7.80;99.90;;;;;;5029373;28;20415;-66
2024/01/01 04:27:09;;;;;;;9.05;2.88;;;7.90;99.90;;;;;;5048923;28;20044;-66
2024/01/01 04:29:35;;;;;;;9.82;3.10;;;7.80;99.90;;;;;;5053088;28;20554;-65
2024/01/01 04:32:01;;;;;;;9.18;2.60;;;7.80;99.90;;;;;;5045323;28;20029;-65
2024/01/01 04:34:26;;;;;;;8.55;3.00;;;7.80;99.90;;;;;;5043383;28;20033;-65
2024/01/01 04:36:52;;;;;;;10.93;5.30;;;7.80;99.90;;;;;;5053023;28;20041;-65
2024/01/01 04:39:17;;;;;;;7.38;3.17;;;7.70;99.90;;;;;;5046922;28;20041;-65
2024/01/01 04:41:43;;;;;;;9.50;3.38;;;7.80;99.90;;;;;;5042316;28;20682;-65
2024/01/01 04:44:08;;;;;;;7.43;3.40;;;7.80;99.90;;;;;;5052024;28;20487;-66
2024/01/01 04:46:34;;;;;;;8.68;3.63;;;7.80;99.90;;;;;;5040607;28;20033;-65
2024/01/01 04:49:00;;;;;;;5.80;2.53;;;7.80;99.90;;;;;;5045349;28;20098;-67
2024/01/01 04:51:25;;;;;;;11.18;3.00;;;7.90;99.90;;;;;;5052144;28;20041;-66
2024/01/01 04:53:51;;;;;;;11.00;3.88;;;7.90;99.90;;;;;;5053011;28;20515;-65
2024/01/01 04:56:17;;;;;;;11.18;3.50;;;7.80;99.90;;;;;;5048405;28;20029;-65
2024/01/01 04:58:43;;;;;;;10.57;4.00;;;7.90;99.90;;;;;;5045265;28;20426;-66
2024/01/01 05:01:09;;;;;;;14.25;5.18;;;7.90;99.90;;;;;;5053091;28;20037;-66
2024/01/01 05:03:35;;;;;;;9.00;3.60;;;7.90;99.90;;;;;;5050340;28;20048;-64
2024/01/01 05:06:00;;;;;;;9.98;3.88;;;7.90;99.90;;;;;;5041607;28;20041;-66
2024/01/01 05:08:26;;;;;;;11.00;4.47;;;7.80;99.90;;;;;;5046078;28;20151;-67
2024/01/01 05:10:51;;;;;;;10.18;3.88;;;7.80;99.90;;;;;;5052861;28;20045;-67
2024/01/01 05:13:17;;;;;;;14.10;5.15;;;7.80;99.90;;;;;;5052317;28;20552;-66
2024/01/01 05:15:43;;;;;;;9.15;3.67;;;7.80;99.90;;;;;;5033585;28;20063;-65
2024/01/01 05:18:09;;;;;;;12.02;4.15;;;7.70;99.90;;;;;;5051651;28;20029;-65
2024/01/01 05:20:34;;;;;;;14.07;4.70;;;7.70;99.90;;;;;;5052642;28;20111;-66
2024/01/01 05:23:00;;;;;;;14.60;4.70;;;7.70;99.90;;;;;;5034960;28;20127;-67
2024/01/01 05:25:26;;;;;;;13.43;4.93;;;7.70;99.90;;;;;;5045473;28;20091;-66
2024/01/01 05:27:52;;;;;;;11.52;4.85;;;7.70;99.90;;;;;;5051823;28;20543;-66
2024/01/01 05:30:17;;;;;;;9.77;4.43;;;7.70;99.90;;;;;;5052930;28;20055;-65
2024/01/01 05:32:43;;;;;;;12.40;4.55;;;7.60;99.90;;;;;;5042045;28;20036;-65
2024/01/01 05:35:08;;;;;;;14.88;4.75;;;7.60;99.90;;;;;;5050118;28;20045;-65
2024/01/01 05:37:34;;;;;;;16.50;5.50;;;7.60;99.90;;;;;;5066242;28;20064;-65
2024/01/01 05:39:59;;;;;;;14.32;4.93;;;7.60;99.90;;;;;;5050773;28;20426;-65
2024/01/01 05:42:25;;;;;;;12.68;4.50;;;7.60;99.90;;;;;;5051270;28;20549;-65
2024/01/01 05:44:51;;;;;;;12.23;4.68;;;7.60;99.90;;;;;;5052375;28;20041;-66
2024/01/01 05:47:17;;;;;;;14.75;4.97;;;7.60;99.90;;;;;;5032956;28;20037;-66
2024/01/01 05:49:43;;;;;;;15.02;4.50;;;7.60;99.90;;;;;;5046428;28;20060;-66
2024/01/01 05:52:08;;;;;;;13.18;4.65;;;7.60;99.90;;;;;;5051185;28;20072;-66
2024/01/01 05:54:34;;;;;;;14.85;4.72;;;7.60;99.90;;;;;;5051986;28;20193;-66
2024/01/01 05:56:59;;;;;;;14.05;4.50;;;7.60;99.90;;;;;;5037779;28;20048;-66
2024/01/01 05:59:25;;;;;;;14.10;5.35;;;7.60;99.90;;;;;;5051225;28;20037;-66
2024/01/01 06:01:50;;;;;;;13.40;4.40;;;7.60;99.90;;;;;;5052026;28;20040;-65
2024/01/01 06:04:16;;;;;;;14.25;4.57;;;7.60;99.90;;;;;;5051742;28;20047;-66
2024/01/01 06:06:41;;;;;;;14.45;4.68;;;7.70;99.90;;;;;;5040498;28;20036;-66
2024/01/01 06:09:07;;;;;;;12.65;4.57;;;7.70;99.90;;;;;;5042717;28;20047;-64
2024/01/01 06:11:33;;;;;;;11.27;4.28;;;7.60;99.90;;;;;;5044841;28;20044;-66
2024/01/01 06:13:59;;;;;;;17.92;6.38;;;7.60;99.90;;;;;;5032973;28;20029;-66
2024/01/01 06:16:25;;;;;;;12.65;3.80;;;7.60;99.90;;;;;;5048229;28;20115;-67
2024/01/01 06:18:51;;;;;;;10.30;4.03;;;7.60;99.90;;;;;;5050175;28;20462;-64
2024/01/01 06:21:17;;;;;;;12.38;3.75;;;7.60;99.90;;;;;;5038728;28;20040;-66
2024/01/01 06:23:45;;;;;;;14.00;3.50;;;7.60;99.90;;;;;;5049983;28;20029;-66
2024/01/01 06:26:11;;;;;;;9.77;4.35;;;7.60;99.90;;;;;;5046867;28;20599;-67
2024/01/01 06:28:37;;;;;;;12.55;4.20;;;7.70;99.90;;;;;;5039253;28;20407;-66
2024/01/01 06:31:03;;;;;;;13.15;4.30;;;7.70;99.90;;;;;;5045897;28;20053;-66
2024/01/01 06:33:29;;;;;;;10.57;4.28;;;7.70;99.90;;;;;;5046577;28;20029;-67
2024/01/01 06:35:55;;;;;;;11.57;3.92;;;7.70;99.90;;;;;;5040974;28;20033;-67
2024/01/01 06:38:21;;;;;;;13.90;4.72;;;7.70;99.90;;;;;;5044799;28;20106;-66
2024/01/01 06:40:46;;;;;;;13.60;4.45;;;7.70;99.90;;;;;;5047467;28;20039;-66
2024/01/01 06:43:12;;;;;;;11.55;4.53;;;7.70;99.90;;;;;;5032711;28;20415;-66
2024/01/01 06:45:38;;;;;;;12.18;3.80;;;7.60;99.90;;;;;;5035281;28;20051;-66
2024/01/01 06:48:04;;;;;;;14.90;3.65;;;7.60;99.90;;;;;;5028054;28;20426;-66
2024/01/01 06:50:30;;;;;;;7.70;3.85;;;7.60;99.90;;;;;;5047255;28;20041;-67
2024/01/01 06:52:55;;;;;;;10.68;4.47;;;7.60;99.90;;;;;;5046478;28;20048;-67
2024/01/01 06:55:24;;;;;;;11.52;4.32;;;7.60;99.90;;;;;;5043687;28;20033;-66
2024/01/01 06:57:50;;;;;;;13.73;3.72;;;7.60;99.90;;;;;;5026841;28;20427;-66
2024/01/01 07:00:17;;;;;;;13.98;3.80;;;7.60;99.90;;;;;;5028299;28;20076;-66
2024/01/01 07:02:42;;;;;;;14.07;4.25;;;7.60;99.90;;;;;;5037290;28;20045;-66
2024/01/01 07:05:08;;;;;;;9.95;3.53;;;7.50;99.90;;;;;;5045097;28;20048;-66
2024/01/01 07:07:33;;;;;;;11.25;3.75;;;7.50;99.90;;;;;;5046532;28;20041;-66
2024/01/01 07:09:59;;;;;;;12.13;3.42;;;7.50;99.90;;;;;;5046072;28;20420;-66
2024/01/01 07:12:27;;;;;;;9.73;3.97;;;7.50;99.90;;;;;;5049417;28;20032;-66
2024/01/01 07:14:54;;;;;;;13.25;3.30;;;7.50;99.90;;;;;;5050394;28;20406;-66
2024/01/01 07:17:20;;;;;;;10.80;3.40;;;7.50;99.90;;;;;;5052171;28;20033;-66
2024/01/01 07:19:46;;;;;;;11.73;3.45;;;7.40;99.90;;;;;;5047238;28;20116;-66
2024/01/01 07:22:12;;;;;;;14.18;4.13;;;7.40;99.90;;;;;;5048952;28;20123;-65
2024/01/01 07:24:38;;;;;;;9.45;4.00;;;7.40;99.90;;;;;;5049576;28;20044;-65
2024/01/01 07:27:04;;;;;;;10.77;4.00;;;7.50;99.90;;;;;;5044323;28;20040;-66
2024/01/01 07:29:30;;;;;;;14.25;4.18;;;7.50;99.90;;;;;;5048219;28;20632;-67
2024/01/01 07:31:56;;;;;;;13.98;4.00;;;7.60;99.90;;;;;;5050115;28;20387;-66
2024/01/01 07:34:22;;;;;;;15.02;4.20;;;7.60;99.90;;;;;;5040719;28;20086;-67
2024/01/01 07:36:51;;;;;;;12.90;4.43;;;7.60;99.90;;;;;;5044404;28;20041;-66
2024/01/01 07:39:20;;;;;;;12.93;4.18;;;7.60;99.90;;;;;;5047037;28;20136;-65
2024/01/01 07:41:46;;;;;;;12.40;4.85;;;7.60;99.90;;;;;;5033092;28;20048;-66
2024/01/01 07:44:11;;;;;;;8.85;3.42;;;7.60;99.90;;;;;;5043861;28;20076;-66
2024/01/01 07:46:37;;;;;;;12.23;4.35;;;7.60;99.90;;;;;;5042018;28;20056;-65
2024/01/01 07:49:05;;;;;;;16.33;4.80;;;7.60;99.90;;;;;;5049600;28;20037;-67
2024/01/01 07:51:31;;;;;;;11.32;4.40;;;7.60;99.90;;;;;;5046712;28;20041;-65
2024/01/01 07:53:57;;;;;;;12.63;4.53;;;7.60;99.90;;;;;;5040842;28;20044;-64
2024/01/01 07:56:22;;;;;;;13.00;4.80;;;7.50;99.90;;;;;;5047743;28;20068;-65
2024/01/01 07:58:49;;;;;;;15.38;4.03;;;7.50;99.90;;;;;;5049928;28;20052;-65
2024/01/01 08:01:18;;;;;;;11.23;4.25;;;7.60;99.90;;;;;;5046783;28;20501;-65
2024/01/01 08:03:43;;;;;;;13.57;3.95;;;7.60;99.90;;;;;;5046640;28;20029;-65
2024/01/01 08:06:09;;;;;;;15.65;5.13;;;7.60;99.90;;;;;;5049633;28;20495;-65
2024/01/01 08:08:35;;;;;;;16.17;4.60;;;7.60;99.90;;;;;;5045654;28;20045;-65
2024/01/01 08:11:00;;;;;;;15.30;4.43;;;7.60;99.90;;;;;;5047627;28;20033;-65
2024/01/01 08:13:26;;;;;;;11.40;4.82;;;7.60;99.90;;;;;;5048979;28;20052;-65
2024/01/01 08:15:51;;;;;;;14.48;4.65;;;7.60;99.90;;;;;;5049381;28;20135;-67
2024/01/01 08:18:17;;;;;;;11.15;4.07;;;7.60;99.90;;;;;;5034840;28;20167;-66
2024/01/01 08:20:43;;;;;;;13.68;4.07;;;7.60;99.90;;;;;;5041617;28;20108;-65
2024/01/01 08:23:09;;;;;;;11.70;4.95;;;7.70;99.90;;;;;;5049187;28;20048;-64
2024/01/01 08:25:35;;;;;;;14.18;4.55;;;7.70;99.90;;;;;;5043395;28;20053;-65
2024/01/01 08:28:00;;;;;;;10.68;3.63;;;7.70;99.90;;;;;;5039897;28;20036;-66
2024/01/01 08:30:26;;;;;;;9.95;4.05;;;7.70;99.90;;;;;;5049278;28;20174;-67
2024/01/01 08:32:52;;;;;;;11.27;3.90;;;7.70;99.90;;;;;;5030777;28;20044;-66
2024/01/01 08:35:17;;;;;;;12.82;3.72;;;7.70;99.90;;;;;;5038926;28;20041;-66
2024/01/01 08:37:43;;;;;;;12.65;4.22;;;7.70;99.90;;;;;;5043203;28;20091;-64
2024/01/01 08:40:10;;;;;;;9.13;4.07;;;7.80;99.90;;;;;;5044754;28;20052;-64
2024/01/01 08:42:36;;;;;;;11.15;4.13;;;7.80;99.90;;;;;;5037327;28;20037;-65
2024/01/01 08:45:06;;;;;;;10.68;3.92;;;7.70;99.90;;;;;;5048497;28;20037;-65
2024/01/01 08:47:31;;;;;;;12.73;3.60;;;7.70;99.90;;;;;;5048774;28;20037;-65
2024/01/01 08:49:57;;;;;;;10.60;3.97;;;7.70;99.90;;;;;;5042463;28;20513;-65
2024/01/01 08:52:23;;;;;;;12.57;3.90;;;7.70;99.90;;;;;;5047892;28;20029;-65
2024/01/01 08:54:48;;;;;;;9.15;3.90;;;7.70;99.90;;;;;;5048487;28;20036;-66
2024/01/01 08:57:15;;;;;;;12.90;5.00;;;7.80;99.90;;;;;;5048064;28;20040;-64
2024/01/01 08:59:41;;;;;;;12.95;4.65;;;7.80;99.90;;;;;;5033584;28;20694;-65
2024/01/01 09:02:07;;;;;;;9.75;3.65;;;7.80;99.90;;;;;;5048131;28;20040;-67
2024/01/01 09:04:33;;;;;;;7.30;3.35;;;7.80;99.90;;;;;;5030344;28;20036;-67
2024/01/01 09:07:02;;;;;;;9.02;3.72;;;7.80;99.90;;;;;;5049008;28;20584;-65
2024/01/01 09:09:28;;;;;;;10.70;4.03;;;7.80;99.90;;;;;;5030277;28;20053;-64
2024/01/01 09:11:54;;;;;;;11.55;3.80;;;7.80;99.90;;;;;;5038994;28;20116;-66
2024/01/01 09:14:20;;;;;;;9.45;3.65;;;7.80;99.90;;;;;;5046997;28;20578;-66
2024/01/01 09:16:46;;;;;;;9.00;3.83;;;7.80;99.90;;;;;;5041857;28;20040;-65
2024/01/01 09:19:12;;;;;;;12.45;3.92;;;7.70;99.90;;;;;;5046194;28;20066;-66
2024/01/01 09:21:38;;;;;;;11.70;4.18;;;7.70;99.90;;;;;;5048003;28;20178;-65
2024/01/01 09:24:05;;;;;;;10.15;4.10;;;7.70;99.90;;;;;;5041575;28;20037;-66
2024/01/01 09:26:31;;;;;;;8.73;4.50;;;7.70;99.90;;;;;;5047236;28;20041;-66
2024/01/01 09:28:57;;;;;;;11.10;4.18;;;7.70;99.90;;;;;;5034945;28;20032;-66
2024/01/01 09:31:22;;;;;;;12.63;5.03;;;7.70;99.90;;;;;;5036938;28;20716;-66
2024/01/01 09:33:48;;;;;;;12.27;4.68;;;7.70;99.90;;;;;;5030735;28;20087;-65
2024/01/01 09:36:14;;;;;;;10.13;5.07;;;7.70;99.90;;;;;;5029778;28;20044;-65
2024/01/01 09:38:41;;;;;;;13.52;4.70;;;7.80;99.90;;;;;;5047522;28;20032;-66
2024/01/01 09:41:11;;;;;;;10.38;5.00;;;7.90;99.90;;;;;;5047713;28;20051;-66
2024/01/01 09:43:36;;;;;;;10.13;4.63;;;8.00;99.90;;;;;;5042830;28;20563;-65
2024/01/01 09:46:02;;;;;;;10.52;3.88;;;8.00;99.90;;;;;;5040504;28;20030;-64
2024/01/01 09:48:28;;;;;;;11.35;4.00;;;8.00;99.90;;;;;;5032290;28;20617;-65
2024/01/01 09:50:53;;;;;;;9.93;4.00;;;8.00;99.90;;;;;;5045772;28;20036;-65
2024/01/01 09:53:19;;;;;;;10.93;3.97;;;7.90;99.90;;;;;;5046422;28;20060;-65
2024/01/01 09:55:52;;;;;;;14.38;4.43;;;7.80;99.90;;;;;;5037757;28;20183;-64
2024/01/01 09:58:18;;;;;;;11.80;4.43;;;7.80;99.90;;;;;;5043184;28;20698;-66
2024/01/01 10:00:43;;;;;;;8.63;4.00;;;7.90;99.90;;;;;;5041977;28;20108;-66
2024/01/01 10:03:10;;;;;;;12.48;4.15;;;7.80;99.90;;;;;;5046687;28;20415;-65
2024/01/01 10:05:39;;;;;;;17.92;5.15;;;7.80;99.90;;;;;;5037936;28;20049;-66
2024/01/01 10:08:13;;;;;;;12.75;5.38;;;7.80;99.90;;;;;;5046227;28;20186;-65
2024/01/01 10:10:39;;;;;;;12.05;4.15;;;7.90;99.90;;;;;;5047068;28;20415;-64
2024/01/01 10:13:10;;;;;;;11.88;4.45;;;7.90;99.90;;;;;;5043539;28;20041;-65
2024/01/01 10:15:40;;;;;;;8.82;3.80;;;7.90;99.90;;;;;;5042011;28;20037;-66
2024/01/01 10:18:10;;;;;;;11.25;4.22;;;7.90;99.90;;;;;;5044569;28;20040;-66
2024/01/01 10:20:37;;;;;;;16.02;4.40;;;7.90;99.90;;;;;;5042726;28;20172;-65
2024/01/01 10:23:27;;;;;;;8.50;3.83;;;7.90;99.90;;;;;;5035116;28;20037;-70
2024/01/01 10:26:09;;;;;;;10.98;4.60;;;7.90;99.90;;;;;;5027479;28;20547;-66
2024/01/01 10:28:35;;;;;;;11.80;3.83;;;8.00;99.90;;;;;;5047666;28;20048;-66
2024/01/01 10:31:02;;;;;;;10.05;3.50;;;8.00;99.90;;;;;;5043985;28;20037;-65
2024/01/01 10:33:29;;;;;;;7.03;2.92;;;8.00;99.90;;;;;;5027083;28;20593;-66
2024/01/01 10:35:58;;;;;;;11.00;3.10;;;8.00;99.90;;;;;;5049695;28;20058;-65
2024/01/01 10:38:25;;;;;;;8.43;2.58;;;7.90;99.90;;;;;;5050831;28;20056;-66
2024/01/01 10:40:55;;;;;;;9.25;3.10;;;7.90;99.90;;;;;;5039663;28;20037;-66
2024/01/01 10:43:22;;;;;;;9.30;3.00;;;7.90;99.90;;;;;;5046460;28;20102;-66
2024/01/01 10:45:50;;;;;;;7.88;2.67;;;7.90;99.90;;;;;;5029889;28;20049;-66
2024/01/01 10:48:15;;;;;;;6.68;2.80;;;7.90;99.90;;;;;;5042409;28;20087;-66
2024/01/01 10:50:59;;;;;;;5.90;2.60;;;7.90;99.90;;;;;;5042494;28;20045;-65
2024/01/01 10:53:43;;;;;;;6.22;2.75;;;8.00;99.90;;;;;;5044385;28;20518;-66
2024/01/01 10:56:21;;;;;;;9.43;3.05;;;8.00;99.90;;;;;;5041663;28;20045;-66
2024/01/01 10:59:05;;;;;;;6.72;2.75;;;8.00;99.90;;;;;;5043766;28;20037;-66
2024/01/01 11:01:31;;;;;;;10.23;2.90;;;8.00;99.90;;;;;;5047207;28;20060;-66
2024/01/01 11:03:57;;;;;;;7.97;3.20;;;8.00;99.90;;;;;;5029254;28;20056;-66
2024/01/01 11:06:27;;;;;;;11.07;3.05;;;8.00;99.90;;;;;;5035958;28;20056;-65
2024/01/01 11:08:57;;;;;;;7.82;2.95;;;8.00;99.90;;;;;;5017493;28;20041;-65
2024/01/01 11:11:30;;;;;;;4.95;2.25;;;7.90;99.90;;;;;;5033310;28;20151;-65
2024/01/01 11:13:57;;;;;;;7.07;2.55;;;7.90;99.90;;;;;;5024582;28;20045;-67
2024/01/01 11:16:23;;;;;;;10.35;3.35;;;7.90;99.90;;;;;;5046441;28;20487;-65
2024/01/01 11:18:50;;;;;;;9.27;3.08;;;7.80;99.90;;;;;;5045920;28;20037;-66
2024/01/01 11:21:30;;;;;;;7.97;3.40;;;7.80;99.90;;;;;;5041335;28;20521;-66
2024/01/01 11:23:56;;;;;;;7.88;3.08;;;7.80;99.90;;;;;;5044278;28;20463;-64
2024/01/01 11:26:32;;;;;;;4.95;2.17;;;7.80;99.90;;;;;;5040595;28;20143;-66
2024/01/01 11:29:04;;;;;;;5.57;2.22;;;7.90;99.90;;;;;;5023434;28;20053;-66
2024/01/01 11:31:30;;;;;;;;;;;7.80;99.90;;;;;;5045208;28;20045;-66
2024/01/01 11:34:09;;;;;;;5.53;2.00;;;7.60;99.90;;;;;;5046227;28;19923;-65
2024/01/01 11:36:43;;;;;;;4.10;1.90;;;7.40;99.90;;;;;;5046198;28;20112;-65
2024/01/01 11:39:10;;;;;;;6.50;2.00;;;7.30;99.90;;;;;;5039353;28;20037;-66
2024/01/01 11:41:36;;;;;;;9.63;2.55;;;7.20;99.90;;;;;;5046115;28;20055;-66
2024/01/01 11:44:14;;;;;;;5.78;2.17;;;7.30;99.90;;;;;;5046165;28;20033;-65
2024/01/01 11:46:41;;;;;;;9.02;3.30;;;7.50;99.90;;;;;;5042221;28;20025;-66
2024/01/01 11:49:07;;;;;;;10.65;2.85;;;7.70;99.90;;;;;;5045282;28;20419;-66
2024/01/01 11:51:52;;;;;;;10.18;3.58;;;7.90;99.90;;;;;;5046719;28;20069;-66
2024/01/01 11:54:18;;;;;;;9.85;3.00;;;8.10;99.90;;;;;;5043228;28;20787;-67
2024/01/01 11:56:46;;;;;;;11.23;3.58;;;8.30;99.90;;;;;;5044630;28;20033;-66
2024/01/01 11:59:12;;;;;;;11.32;3.15;;;8.50;99.90;;;;;;5049027;28;20124;-67
2024/01/01 12:01:39;;;;;;;6.80;2.83;;;8.60;99.90;;;;;;5044311;28;23321;-66
2024/01/01 12:04:07;;;;;;;6.68;2.50;;;8.70;99.90;;;;;;5044324;28;20037;-65
2024/01/01 12:06:34;;;;;;;8.80;3.03;;;8.70;99.90;;;;;;5048667;28;20052;-65
2024/01/01 12:09:09;;;;;;;9.07;2.28;;;8.70;99.90;;;;;;5049499;28;20151;-64
2024/01/01 12:11:37;;;;;;;8.00;2.45;;;8.60;99.90;;;;;;5045161;28;20051;-66
2024/01/01 12:14:03;;;;;;;7.43;2.40;;;8.60;99.90;;;;;;5045761;28;20083;-65
2024/01/01 12:16:32;;;;;;;12.75;3.20;;;8.60;99.90;;;;;;5047190;28;20442;-66
2024/01/01 12:19:02;;;;;;;8.02;2.10;;;8.60;99.90;;;;;;5044682;28;20683;-67
2024/01/01 12:21:42;;;;;;;6.88;2.00;;;8.80;99.90;;;;;;5047307;28;20052;-65
2024/01/01 12:24:11;;;;;;;7.60;2.28;;;8.90;99.90;;;;;;5046352;28;20389;-67
2024/01/01 12:26:37;;;;;;;6.57;2.22;;;8.80;99.90;;;;;;5048735;28;20726;-67
2024/01/01 12:29:18;;;;;;;6.78;2.55;;;8.70;99.90;;;;;;5027067;28;20036;-65
2024/01/01 12:31:45;;;;;;;7.93;2.40;;;8.60;99.90;;;;;;5036741;28;20377;-66
2024/01/01 12:34:29;;;;;;;9.00;2.90;;;8.50;99.90;;;;;;5028743;28;20098;-65
2024/01/01 12:36:56;;;;;;;10.15;2.50;;;8.50;99.90;;;;;;5043977;28;20033;-66
2024/01/01 12:39:21;;;;;;;11.48;2.25;;;8.50;99.90;;;;;;5045986;28;20533;-66
2024/01/01 12:41:47;;;;;;;9.90;2.42;;;8.60;99.90;;;;;;5048965;28;20059;-66
2024/01/01 12:44:12;;;;;;;9.77;2.78;;;8.80;99.90;;;;;;5042760;28;20079;-67
2024/01/01 12:46:39;;;;;;;9.90;2.50;;;8.90;99.90;;;;;;5025277;28;20703;-66